Time;durP1;ratioP1;P1;durP2;ratioP2;P2;SDS_P1;SDS_P2;PMS_P1;PMS_P2;Temp;Humidity;BMP_temperature;BMP_pressure;BME280_temperature;BME280_humidity;BME280_pressure;Samples;Min_cycle;Max_cycle;Signal;HPM_P1;HPM_P2
2023/07/07 00:00:04;;;;;;;7.9;5.3;;;;;;;14.82;89.37305;941.4387;;;;
2023/07/07 00:02:29;;;;;;;8.4;5.1;;;;;;;14.84;89.22949;941.3995;;;;
2023/07/07 00:04:57;;;;;;;7.3;4.8;;;;;;;14.67;89.77051;941.442;;;;
2023/07/07 00:07:22;;;;;;;6.3;4.8;;;;;;;14.71;89.58398;941.4763;;;;
2023/07/07 00:09:49;;;;;;;8.4;4.9;;;;;;;14.6;89.7207;941.5283;;;;
2023/07/07 00:12:16;;;;;;;7.7;5;;;;;;;14.59;89.34082;941.5396;;;;
2023/07/07 00:14:41;;;;;;;6.4;4.4;;;;;;;14.67;88.75781;941.5502;;;;
2023/07/07 00:17:06;;;;;;;6.4;5;;;;;;;14.6;89.17969;941.6021;;;;
2023/07/07 00:19:36;;;;;;;8.9;4.9;;;;;;;14.55;89.83887;941.5555;;;;
2023/07/07 00:22:00;;;;;;;7.5;5;;;;;;;14.45;89.57617;941.5316;;;;
2023/07/07 00:24:27;;;;;;;8.3;4.8;;;;;;;14.2;90.62988;941.4594;;;;
2023/07/07 00:26:52;;;;;;;6.7;4.5;;;;;;;14;90.97949;941.5061;;;;
2023/07/07 00:29:19;;;;;;;9;5.1;;;;;;;14.08;90.7666;941.5994;;;;
2023/07/07 00:31:44;;;;;;;12.1;5.4;;;;;;;14.22;90.74805;941.5502;;;;
2023/07/07 00:34:09;;;;;;;7.2;5;;;;;;;14.1;91.11523;941.6186;;;;
2023/07/07 00:36:34;;;;;;;6.7;4.8;;;;;;;14.05;91.67969;941.625;;;;
2023/07/07 00:39:02;;;;;;;8.4;5.3;;;;;;;14.07;91.73145;941.6322;;;;
2023/07/07 00:41:28;;;;;;;7.3;5.3;;;;;;;14.22;91.04785;941.6119;;;;
2023/07/07 00:44:18;;;;;;;8;4.8;;;;;;;14.16;91.13867;941.6803;;;;
2023/07/07 00:46:28;;;;;;;7.7;4.9;;;;;;;14.28;90.7959;941.736;;;;
2023/07/07 00:48:55;;;;;;;8.8;5.3;;;;;;;14.4;90.03711;941.7665;;;;
2023/07/07 00:51:20;;;;;;;8.4;5.2;;;;;;;14.28;90.88867;941.813;;;;
2023/07/07 00:53:45;;;;;;;8.8;5.5;;;;;;;14.32;90.57324;941.7905;;;;
2023/07/07 00:56:10;;;;;;;8.5;5.4;;;;;;;14.17;91.76367;941.7901;;;;
2023/07/07 00:58:35;;;;;;;7;4.8;;;;;;;14.07;91.89258;941.6786;;;;
2023/07/07 01:01:00;;;;;;;7.8;5.1;;;;;;;13.98;91.99805;941.7623;;;;
2023/07/07 01:03:27;;;;;;;7.5;4.9;;;;;;;13.94;92.48535;941.7734;;;;
2023/07/07 01:05:53;;;;;;;9.8;5;;;;;;;13.9;92.74219;941.8253;;;;
2023/07/07 01:08:17;;;;;;;7.8;5.2;;;;;;;14.1;92.07129;941.806;;;;
2023/07/07 01:10:43;;;;;;;6.4;4.5;;;;;;;14.23;90.98047;941.8016;;;;
2023/07/07 01:13:09;;;;;;;9.1;5.2;;;;;;;14.2;91.14746;941.8694;;;;
2023/07/07 01:15:34;;;;;;;5.8;4.3;;;;;;;14.2;90.51465;941.8678;;;;
2023/07/07 01:17:59;;;;;;;7.1;4.8;;;;;;;14.08;90.83496;941.8876;;;;
2023/07/07 01:20:24;;;;;;;6.5;4.6;;;;;;;14.07;90.62402;941.9341;;;;
2023/07/07 01:22:49;;;;;;;7.7;5;;;;;;;13.84;91.74121;941.9053;;;;
2023/07/07 01:25:17;;;;;;;8;5.2;;;;;;;13.92;91.34277;941.9375;;;;
2023/07/07 01:27:42;;;;;;;8.9;4.9;;;;;;;13.93;91.28711;941.9063;;;;
2023/07/07 01:30:10;;;;;;;7.8;5.1;;;;;;;13.8;91.78906;941.9849;;;;
2023/07/07 01:32:40;;;;;;;7.1;5.1;;;;;;;13.65;92.67871;941.9644;;;;
2023/07/07 01:35:05;;;;;;;7.2;4.8;;;;;;;13.68;92.20215;941.9357;;;;
2023/07/07 01:37:34;;;;;;;6.3;5;;;;;;;13.46;93.41797;941.9778;;;;
2023/07/07 01:40:07;;;;;;;6.6;4.9;;;;;;;13.29;94.50781;941.9687;;;;
2023/07/07 01:42:38;;;;;;;8.9;5.1;;;;;;;13.22;94.81348;941.942;;;;
2023/07/07 01:45:03;;;;;;;9.4;5.5;;;;;;;13.35;94.33789;942.0042;;;;
2023/07/07 01:47:29;;;;;;;6.8;5.1;;;;;;;13.36;94.64941;941.9682;;;;
2023/07/07 01:49:56;;;;;;;7.6;5;;;;;;;13.3;94.72754;942.0175;;;;
2023/07/07 01:52:22;;;;;;;8.5;5.1;;;;;;;13.3;95.22363;941.9088;;;;
2023/07/07 01:54:47;;;;;;;7;4.8;;;;;;;13.44;94.23047;941.9977;;;;
2023/07/07 01:57:12;;;;;;;8.4;5;;;;;;;13.37;94.1709;942.0347;;;;
2023/07/07 01:59:41;;;;;;;7.6;4.7;;;;;;;13.46;93.79785;942.0242;;;;
2023/07/07 02:02:06;;;;;;;6.7;4.8;;;;;;;13.59;93.03125;942.0287;;;;
2023/07/07 02:04:36;;;;;;;8;4.8;;;;;;;13.49;93.10449;942.0347;;;;
2023/07/07 02:07:05;;;;;;;7.8;5.3;;;;;;;13.35;94.03906;941.985;;;;
2023/07/07 02:09:30;;;;;;;8;4.6;;;;;;;13.28;93.88672;941.9503;;;;
2023/07/07 02:11:59;;;;;;;8.7;5.4;;;;;;;13.2;94.21191;942.0215;;;;
2023/07/07 02:14:24;;;;;;;7.8;4.6;;;;;;;13.31;93.51172;941.988;;;;
2023/07/07 02:16:54;;;;;;;7.3;4.9;;;;;;;13.19;93.66992;941.9615;;;;
2023/07/07 02:19:25;;;;;;;7.6;4.9;;;;;;;12.95;95.39941;941.9731;;;;
2023/07/07 02:21:53;;;;;;;8.3;5;;;;;;;12.78;96.46387;941.9445;;;;
2023/07/07 02:24:18;;;;;;;7.4;5.2;;;;;;;12.79;96.95898;941.947;;;;
2023/07/07 02:26:49;;;;;;;8.8;5.6;;;;;;;12.92;96.29883;941.9481;;;;
2023/07/07 02:29:12;;;;;;;8.9;5.2;;;;;;;13.05;95.50195;941.9476;;;;
2023/07/07 02:31:38;;;;;;;6.4;4.7;;;;;;;12.97;95.3916;941.9238;;;;
2023/07/07 02:34:03;;;;;;;6.3;4.8;;;;;;;12.87;95.97656;941.9734;;;;
2023/07/07 02:36:36;;;;;;;7.5;4.8;;;;;;;12.86;95.56152;941.9166;;;;
2023/07/07 02:38:58;;;;;;;8.5;5.2;;;;;;;12.74;96.3291;941.8803;;;;
2023/07/07 02:41:28;;;;;;;19.2;5.6;;;;;;;12.82;95.8291;941.9147;;;;
2023/07/07 02:43:59;;;;;;;7.6;5.1;;;;;;;12.84;95.80957;941.9045;;;;
2023/07/07 02:46:26;;;;;;;9;5.6;;;;;;;12.83;95.69336;941.8915;;;;
2023/07/07 02:48:52;;;;;;;9.2;5.9;;;;;;;12.94;95.54492;941.8828;;;;
2023/07/07 02:51:19;;;;;;;7.5;5.3;;;;;;;13.03;94.66895;941.9779;;;;
2023/07/07 02:53:45;;;;;;;8.3;5;;;;;;;13.08;94.26758;941.9319;;;;
2023/07/07 02:56:44;;;;;;;7.6;5.2;;;;;;;12.98;95.2334;942.0173;;;;
2023/07/07 02:59:13;;;;;;;8.5;5.4;;;;;;;13.02;95.54199;942.0074;;;;
2023/07/07 03:01:38;;;;;;;7.5;5.5;;;;;;;13.05;94.70703;942.046;;;;
2023/07/07 03:04:07;;;;;;;6.6;4.6;;;;;;;13.13;94.1416;942.0488;;;;
2023/07/07 03:06:32;;;;;;;7.7;5.1;;;;;;;13.15;94.06445;942.0858;;;;
2023/07/07 03:09:02;;;;;;;9.1;5.3;;;;;;;13.15;94.47656;942.0425;;;;
2023/07/07 03:11:27;;;;;;;7.3;4.9;;;;;;;12.95;94.85938;942.0275;;;;
2023/07/07 03:13:53;;;;;;;8.8;5;;;;;;;12.91;95.3418;941.9529;;;;
2023/07/07 03:16:20;;;;;;;8.4;5.1;;;;;;;12.89;95.05078;942.0535;;;;
2023/07/07 03:18:46;;;;;;;8.2;5.1;;;;;;;12.87;95.00293;942.0438;;;;
2023/07/07 03:21:11;;;;;;;6.7;4.6;;;;;;;12.87;95.12695;942.1028;;;;
2023/07/07 03:23:36;;;;;;;8.5;5;;;;;;;12.9;94.89355;942.1055;;;;
2023/07/07 03:26:03;;;;;;;8.5;4.7;;;;;;;12.91;94.84961;942.1039;;;;
2023/07/07 03:28:28;;;;;;;7.1;4.7;;;;;;;12.87;95.35645;942.1333;;;;
2023/07/07 03:30:56;;;;;;;8.1;5.1;;;;;;;12.97;95.02441;942.1731;;;;
2023/07/07 03:33:23;;;;;;;7.6;5.1;;;;;;;12.82;95.36035;942.2184;;;;
2023/07/07 03:35:48;;;;;;;9.3;5.2;;;;;;;13.05;94.15625;942.209;;;;
2023/07/07 03:38:14;;;;;;;8;5.3;;;;;;;13.12;93.67773;942.243;;;;
2023/07/07 03:40:38;;;;;;;7.5;5.1;;;;;;;13.09;93.69727;942.2133;;;;
2023/07/07 03:43:05;;;;;;;7.4;5.3;;;;;;;12.96;94.04688;942.2026;;;;
2023/07/07 03:45:30;;;;;;;8;4.7;;;;;;;12.97;93.91992;942.1794;;;;
2023/07/07 03:47:56;;;;;;;7.3;4.9;;;;;;;12.9;93.72266;942.1542;;;;
2023/07/07 03:50:21;;;;;;;12.3;8.3;;;;;;;12.67;94.72754;942.217;;;;
2023/07/07 03:52:49;;;;;;;8.9;5.7;;;;;;;12.64;95.14648;942.224;;;;
2023/07/07 03:55:16;;;;;;;9.4;5.6;;;;;;;12.66;95.15234;942.2106;;;;
2023/07/07 03:57:50;;;;;;;9.9;5.7;;;;;;;12.64;95.12402;942.3455;;;;
2023/07/07 04:00:15;;;;;;;8.1;5.5;;;;;;;12.6;95.56348;942.3473;;;;
2023/07/07 04:02:50;;;;;;;10.2;5.2;;;;;;;12.54;96.15723;942.3954;;;;
2023/07/07 04:05:22;;;;;;;10.8;5.2;;;;;;;12.55;96.22754;942.3819;;;;
2023/07/07 04:07:53;;;;;;;7.9;5.3;;;;;;;12.46;96.85254;942.3517;;;;
2023/07/07 04:10:23;;;;;;;8.4;5.4;;;;;;;12.51;97.07813;942.3536;;;;
2023/07/07 04:12:48;;;;;;;8;5.2;;;;;;;12.59;96.39844;942.3336;;;;
2023/07/07 04:15:18;;;;;;;9.6;5.3;;;;;;;12.64;96.52344;942.379;;;;
2023/07/07 04:17:43;;;;;;;8.3;5.2;;;;;;;12.62;96.30176;942.3724;;;;
2023/07/07 04:20:08;;;;;;;7.6;5.4;;;;;;;12.58;96.78418;942.3989;;;;
2023/07/07 04:22:33;;;;;;;8.9;4.8;;;;;;;12.65;96.13574;942.4102;;;;
2023/07/07 04:25:01;;;;;;;8;5.3;;;;;;;12.91;95.08008;942.303;;;;
2023/07/07 04:27:31;;;;;;;8.7;5.4;;;;;;;13.02;94.4375;942.3744;;;;
2023/07/07 04:29:56;;;;;;;7.9;5.6;;;;;;;13.02;94.08301;942.4167;;;;
2023/07/07 04:32:26;;;;;;;8.1;5.1;;;;;;;13.07;94.21973;942.4178;;;;
2023/07/07 04:34:58;;;;;;;10.2;5.3;;;;;;;13.08;94.11816;942.3907;;;;
2023/07/07 04:37:23;;;;;;;8.3;5.2;;;;;;;13.05;94.14648;942.481;;;;
2023/07/07 04:39:51;;;;;;;9.9;5.8;;;;;;;13.03;94.33594;942.5399;;;;
2023/07/07 04:42:16;;;;;;;7.1;5;;;;;;;12.98;94.72754;942.5577;;;;
2023/07/07 04:54:49;;;;;;;9.1;5.5;;;;;;;13.02;95.52832;942.6181;;;;
2023/07/07 04:57:15;;;;;;;7;5;;;;;;;13.05;95.41016;942.6559;;;;
2023/07/07 04:59:40;;;;;;;9.3;4.9;;;;;;;13.17;94.52637;942.5959;;;;
2023/07/07 05:02:11;;;;;;;8.2;5.1;;;;;;;13.4;93.87598;942.5595;;;;
2023/07/07 05:04:39;;;;;;;7.9;4.9;;;;;;;13.42;92.79004;942.6121;;;;
2023/07/07 05:07:06;;;;;;;8;5.2;;;;;;;13.37;93.98535;942.605;;;;
2023/07/07 05:09:32;;;;;;;7.2;4.8;;;;;;;13.99;91.64746;942.5837;;;;
2023/07/07 05:12:34;;;;;;;7.1;5.2;;;;;;;14.71;89.03027;942.5681;;;;
2023/07/07 05:15:06;;;;;;;6.5;4.3;;;;;;;16.26;81.1543;942.599;;;;
2023/07/07 05:17:31;;;;;;;7.7;4.2;;;;;;;16.89;78.83887;942.6434;;;;
2023/07/07 05:19:57;;;;;;;6.7;3.9;;;;;;;17.67;74.41699;942.585;;;;
2023/07/07 05:22:23;;;;;;;6.6;4.4;;;;;;;18.35;70.05762;942.5262;;;;
2023/07/07 05:24:48;;;;;;;6.9;4.2;;;;;;;18.49;67.47461;942.5391;;;;
2023/07/07 05:27:17;;;;;;;7.6;4.3;;;;;;;18.8;67.84766;942.5223;;;;
2023/07/07 05:29:42;;;;;;;7.3;4.4;;;;;;;19.38;65.3623;942.5394;;;;
2023/07/07 05:32:11;;;;;;;6.6;4.3;;;;;;;19.57;63.49121;942.5187;;;;
2023/07/07 05:34:36;;;;;;;8.4;4.3;;;;;;;19.82;64.58887;942.5582;;;;
2023/07/07 05:37:02;;;;;;;6.8;4.4;;;;;;;20.29;62.75488;942.5533;;;;
2023/07/07 05:39:27;;;;;;;6.8;4;;;;;;;20.21;60.54883;942.5797;;;;
2023/07/07 05:41:56;;;;;;;8.1;4.3;;;;;;;20.63;61.17871;942.605;;;;
2023/07/07 05:44:21;;;;;;;5.2;3.8;;;;;;;20.64;63.34082;942.6074;;;;
2023/07/07 05:46:47;;;;;;;6.4;4.1;;;;;;;20.65;59.53418;942.6289;;;;
2023/07/07 05:49:12;;;;;;;5.5;3.9;;;;;;;20.48;60.71387;942.6389;;;;
2023/07/07 05:51:39;;;;;;;6.7;4.4;;;;;;;20.77;59.44434;942.6505;;;;
2023/07/07 05:54:04;;;;;;;7;4.1;;;;;;;21.51;55.83301;942.5108;;;;
2023/07/07 05:56:44;;;;;;;5.6;3.8;;;;;;;21.31;57.21094;942.5344;;;;
2023/07/07 05:59:13;;;;;;;7;4.3;;;;;;;22.3;56.82324;942.5603;;;;
2023/07/07 06:01:38;;;;;;;5.6;4.1;;;;;;;22.87;52.61035;942.5142;;;;
2023/07/07 06:07:33;;;;;;;6.5;3.7;;;;;;;24.4;49.5498;942.5012;;;;
2023/07/07 06:13:24;;;;;;;7.2;3.8;;;;;;;24.4;50.39844;942.4964;;;;
2023/07/07 06:15:54;;;;;;;6;3.7;;;;;;;24.96;49.41113;942.5416;;;;
2023/07/07 06:18:19;;;;;;;4.9;3.5;;;;;;;25.11;46.25293;942.4995;;;;
2023/07/07 06:20:48;;;;;;;6.6;3.4;;;;;;;25.89;46.48828;942.4833;;;;
2023/07/07 06:23:32;;;;;;;5.9;3.9;;;;;;;25.77;45.15137;942.462;;;;
2023/07/07 06:25:57;;;;;;;7.4;4.1;;;;;;;25.73;45.4541;942.4483;;;;
2023/07/07 06:28:27;;;;;;;4.6;3.5;;;;;;;26.27;46.0293;942.406;;;;
2023/07/07 06:30:52;;;;;;;5.6;3.8;;;;;;;26.38;44.4082;942.3784;;;;
2023/07/07 06:33:21;;;;;;;6.1;3.7;;;;;;;26.63;43.41504;942.3778;;;;
2023/07/07 06:35:46;;;;;;;5.2;3.7;;;;;;;26.74;43.76855;942.3892;;;;
2023/07/07 06:38:18;;;;;;;5;3.4;;;;;;;24.69;47.2832;942.4441;;;;
2023/07/07 06:40:46;;;;;;;5.6;3.8;;;;;;;26.2;46.23633;942.3564;;;;
2023/07/07 06:43:12;;;;;;;5.8;3.6;;;;;;;26.25;45.4834;942.3727;;;;
2023/07/07 06:45:37;;;;;;;5.4;3.8;;;;;;;26.87;42.41895;942.3979;;;;
2023/07/07 06:48:05;;;;;;;6.6;3.8;;;;;;;27.58;41.09668;942.3461;;;;
2023/07/07 06:50:30;;;;;;;5.8;3.9;;;;;;;27.58;42.46191;942.3677;;;;
2023/07/07 06:52:59;;;;;;;6;3.7;;;;;;;26.43;43.20605;942.3516;;;;
2023/07/07 06:55:25;;;;;;;7.8;4.4;;;;;;;27.02;42.0293;942.3098;;;;
2023/07/07 06:57:52;;;;;;;5.3;3.5;;;;;;;25.29;45.3623;942.3769;;;;
2023/07/07 07:00:21;;;;;;;5.7;3.7;;;;;;;25.98;43.22168;942.3152;;;;
2023/07/07 07:02:45;;;;;;;4.8;3.5;;;;;;;26.8;43.12305;942.2988;;;;
2023/07/07 07:05:15;;;;;;;5.1;3.4;;;;;;;26.88;42.89355;942.2548;;;;
2023/07/07 07:07:45;;;;;;;5.1;3.8;;;;;;;28.14;40.4707;942.3055;;;;
2023/07/07 07:10:13;;;;;;;7.6;4.7;;;;;;;27.7;42.50879;942.3103;;;;
2023/07/07 07:12:39;;;;;;;4.9;3.5;;;;;;;27.6;41.45508;942.2648;;;;
2023/07/07 07:15:04;;;;;;;6.1;3.8;;;;;;;29.01;40.18066;942.2391;;;;
2023/07/07 07:17:37;;;;;;;6.4;3.8;;;;;;;30.05;37.80273;942.2594;;;;
2023/07/07 07:20:03;;;;;;;7.6;3.6;;;;;;;30.8;37.5918;942.2173;;;;
2023/07/07 07:22:31;;;;;;;7;3.5;;;;;;;31.3;34.87988;942.2128;;;;
2023/07/07 07:25:03;;;;;;;5;3.6;;;;;;;31.33;33.8291;942.2421;;;;
2023/07/07 07:27:38;;;;;;;5.8;3.9;;;;;;;30.74;35.19629;942.1373;;;;
2023/07/07 07:30:02;;;;;;;5.7;3.5;;;;;;;30.17;36.15332;942.2358;;;;
2023/07/07 07:32:30;;;;;;;5.4;3.9;;;;;;;29.26;36.90332;942.2316;;;;
2023/07/07 07:34:57;;;;;;;5.2;3.7;;;;;;;30.16;37.41797;942.2266;;;;
2023/07/07 07:37:22;;;;;;;4.7;3.5;;;;;;;29.82;36.96094;942.1906;;;;
2023/07/07 07:39:50;;;;;;;5.2;3.4;;;;;;;30.03;35.61719;942.212;;;;
2023/07/07 07:42:16;;;;;;;4.9;3.4;;;;;;;29.39;35.30469;942.1741;;;;
2023/07/07 07:44:42;;;;;;;5;3.5;;;;;;;30.19;35.67773;942.157;;;;
2023/07/07 07:47:07;;;;;;;5.3;3.6;;;;;;;30.09;34.72754;942.1606;;;;
2023/07/07 07:49:34;;;;;;;5.4;3.7;;;;;;;29.94;35.61035;942.1305;;;;
2023/07/07 07:51:59;;;;;;;6;3.3;;;;;;;30.08;35.34766;942.1175;;;;
2023/07/07 07:54:26;;;;;;;4.7;3.6;;;;;;;29.38;35.55469;942.0981;;;;
2023/07/07 07:56:51;;;;;;;6.9;4;;;;;;;29.18;36.27734;942.1154;;;;
2023/07/07 07:59:20;;;;;;;6.8;4.2;;;;;;;29.9;35.57129;942.101;;;;
2023/07/07 08:01:46;;;;;;;4.9;3.6;;;;;;;29.55;34.26855;942.0909;;;;
2023/07/07 08:04:15;;;;;;;5.9;3.7;;;;;;;30.23;34.18848;942.0569;;;;
2023/07/07 08:06:40;;;;;;;6.5;4.2;;;;;;;30.26;35.67188;942.1185;;;;
2023/07/07 08:09:09;;;;;;;6.2;3.8;;;;;;;31.09;33.05859;942.0652;;;;
2023/07/07 08:11:42;;;;;;;5.3;3.9;;;;;;;31.21;34.21484;942.0796;;;;
2023/07/07 08:14:08;;;;;;;4.3;3.5;;;;;;;28.41;38.43848;942.0326;;;;
2023/07/07 08:16:33;;;;;;;4.8;3.8;;;;;;;30.49;35.11621;941.9889;;;;
2023/07/07 08:19:04;;;;;;;6.7;4.2;;;;;;;32.33;33.49707;941.9943;;;;
2023/07/07 08:21:34;;;;;;;4.3;3.5;;;;;;;30.96;33.09668;942.0414;;;;
2023/07/07 08:23:58;;;;;;;5;3.4;;;;;;;31.61;32.98828;941.9984;;;;
2023/07/07 08:26:24;;;;;;;5.2;3.4;;;;;;;31.95;32.68848;941.9584;;;;
2023/07/07 08:28:51;;;;;;;5.3;3.7;;;;;;;33.39;31.8916;942.0262;;;;
2023/07/07 08:31:20;;;;;;;5.4;3.5;;;;;;;34.32;29.31934;942.0115;;;;
2023/07/07 08:33:46;;;;;;;5.7;3.9;;;;;;;33.24;29.52637;942.0176;;;;
2023/07/07 08:36:14;;;;;;;5.6;3.8;;;;;;;32.71;29.63574;942.0392;;;;
2023/07/07 08:38:40;;;;;;;6.3;4;;;;;;;31.12;33.89746;941.9677;;;;
2023/07/07 08:41:07;;;;;;;4.9;3.9;;;;;;;31.66;30.84863;941.9854;;;;
2023/07/07 08:43:33;;;;;;;7;4.3;;;;;;;32.03;33.43848;941.9684;;;;
2023/07/07 08:46:03;;;;;;;5.4;3.9;;;;;;;32.05;31.50977;941.9235;;;;
2023/07/07 08:48:32;;;;;;;7.2;3.7;;;;;;;32.78;32.67773;941.9886;;;;
2023/07/07 08:50:57;;;;;;;5;3.8;;;;;;;33.48;31.83789;941.9994;;;;
2023/07/07 08:53:28;;;;;;;5.3;3.8;;;;;;;33.33;28.69043;941.9059;;;;
2023/07/07 08:55:52;;;;;;;5.2;4.2;;;;;;;33.76;28.80176;941.9737;;;;
2023/07/07 08:58:21;;;;;;;5.5;3.9;;;;;;;33.28;30.69434;941.9325;;;;
2023/07/07 09:00:47;;;;;;;5.3;3.6;;;;;;;32.2;31.28125;941.9211;;;;
2023/07/07 09:03:16;;;;;;;4.8;3.7;;;;;;;31.47;33.85254;941.9015;;;;
2023/07/07 09:05:43;;;;;;;5.7;3.7;;;;;;;31.23;31.56055;941.8989;;;;
2023/07/07 09:08:10;;;;;;;5.6;3.8;;;;;;;31.26;32.14844;941.8962;;;;
2023/07/07 09:10:35;;;;;;;5.4;3.9;;;;;;;31.76;33.40625;941.8444;;;;
2023/07/07 09:13:00;;;;;;;5.7;4;;;;;;;30.86;34.11719;941.8265;;;;
2023/07/07 09:15:28;;;;;;;5;3.9;;;;;;;31.56;34.38477;941.8233;;;;
2023/07/07 09:17:53;;;;;;;5.7;4;;;;;;;31.97;33.62598;941.8134;;;;
2023/07/07 09:20:18;;;;;;;6;3.8;;;;;;;32.23;33.95703;941.7353;;;;
2023/07/07 09:22:43;;;;;;;6.2;4.1;;;;;;;32.26;34.01855;941.7296;;;;
2023/07/07 09:25:08;;;;;;;5.7;4.4;;;;;;;30.72;36.22168;941.683;;;;
2023/07/07 09:27:37;;;;;;;6.9;3.8;;;;;;;30.25;39.27539;941.6945;;;;
2023/07/07 09:30:02;;;;;;;5.7;4;;;;;;;30.99;34.62891;941.6358;;;;
2023/07/07 09:32:32;;;;;;;6.2;4.3;;;;;;;29.85;37.73828;941.663;;;;
2023/07/07 09:34:57;;;;;;;5.9;4;;;;;;;29.5;37.10156;941.6527;;;;
2023/07/07 09:37:24;;;;;;;6.1;4.3;;;;;;;29.46;40.29199;941.6653;;;;
2023/07/07 09:39:49;;;;;;;4.8;3.4;;;;;;;28.91;41.56445;941.6003;;;;
2023/07/07 09:42:14;;;;;;;7;4.2;;;;;;;29.17;40.43262;941.6186;;;;
2023/07/07 09:44:39;;;;;;;6.4;4.1;;;;;;;29.76;40.67676;941.6577;;;;
2023/07/07 09:47:06;;;;;;;7.3;4.2;;;;;;;29.85;41.84082;941.5992;;;;
2023/07/07 09:49:29;;;;;;;6.7;4.5;;;;;;;29.14;41.19238;941.6063;;;;
2023/07/07 09:51:54;;;;;;;7.6;4.2;;;;;;;28.53;39.80469;941.6247;;;;
2023/07/07 09:54:20;;;;;;;6.9;4.4;;;;;;;28.22;43.31836;941.606;;;;
2023/07/07 09:56:49;;;;;;;6.7;4.7;;;;;;;28.25;43.67871;941.5948;;;;
2023/07/07 09:59:13;;;;;;;6.3;4.5;;;;;;;28.36;40.58594;941.5873;;;;
2023/07/07 10:01:40;;;;;;;7.5;4.7;;;;;;;27.47;44.97949;941.5667;;;;
2023/07/07 10:04:05;;;;;;;5.9;3.9;;;;;;;27.65;46.19629;941.5981;;;;
2023/07/07 10:06:31;;;;;;;7.1;4.3;;;;;;;28.57;40.67578;941.5751;;;;
2023/07/07 10:08:56;;;;;;;7.9;4.5;;;;;;;29.34;41.9248;941.5845;;;;
2023/07/07 10:11:22;;;;;;;7.9;4.2;;;;;;;29.53;40.6084;941.537;;;;
2023/07/07 10:13:46;;;;;;;6.2;4.2;;;;;;;29.03;45.06348;941.5372;;;;
2023/07/07 10:16:12;;;;;;;6.3;4;;;;;;;28.83;42.24707;941.4961;;;;
2023/07/07 10:18:41;;;;;;;6.6;4.1;;;;;;;28.49;44.45117;941.4762;;;;
2023/07/07 10:21:06;;;;;;;6.4;4.4;;;;;;;27.76;46.37402;941.4689;;;;
2023/07/07 10:23:33;;;;;;;6.3;4.2;;;;;;;27.93;45.13184;941.4606;;;;
2023/07/07 10:25:58;;;;;;;6.9;4.4;;;;;;;28.09;46.78711;941.5095;;;;
2023/07/07 10:28:26;;;;;;;5.6;3.8;;;;;;;27.91;42.30273;941.4736;;;;
2023/07/07 10:30:51;;;;;;;7.3;4.7;;;;;;;28.4;43.43066;941.495;;;;
2023/07/07 10:33:20;;;;;;;7.6;4.1;;;;;;;28.63;45.19043;941.5712;;;;
2023/07/07 10:35:43;;;;;;;7.1;4.4;;;;;;;28.75;41.84668;941.5047;;;;
2023/07/07 10:38:09;;;;;;;6.3;3.9;;;;;;;29.11;42.42773;941.5408;;;;
2023/07/07 10:40:35;;;;;;;6.6;3.9;;;;;;;29.21;43.79492;941.5106;;;;
2023/07/07 10:43:04;;;;;;;5.6;3.8;;;;;;;29.07;46.11523;941.4933;;;;
2023/07/07 10:45:29;;;;;;;5;3.8;;;;;;;29.2;40.8291;941.4715;;;;
2023/07/07 10:47:59;;;;;;;7.2;3.8;;;;;;;29.22;44.45215;941.5219;;;;
2023/07/07 10:50:25;;;;;;;6;4.1;;;;;;;29.15;41.3125;941.4892;;;;
2023/07/07 10:52:49;;;;;;;8.2;4;;;;;;;29.22;42.34375;941.4506;;;;
2023/07/07 10:55:19;;;;;;;6.6;4.2;;;;;;;29.02;44.01563;941.5031;;;;
2023/07/07 10:57:46;;;;;;;7.2;4.4;;;;;;;28.36;45.11621;941.4389;;;;
2023/07/07 11:00:17;;;;;;;5.8;3.8;;;;;;;28.56;43.25586;941.4702;;;;
2023/07/07 11:02:43;;;;;;;6.9;4;;;;;;;28.87;43.58398;941.4576;;;;
2023/07/07 11:05:16;;;;;;;6;3.9;;;;;;;28.44;41.36621;941.4797;;;;
2023/07/07 11:07:42;;;;;;;6.5;3.8;;;;;;;28.62;44.38086;941.4625;;;;
2023/07/07 11:10:17;;;;;;;7.5;4.5;;;;;;;28.9;41.37305;941.3945;;;;
2023/07/07 11:12:46;;;;;;;6.8;4;;;;;;;28.4;43.01563;941.4203;;;;
2023/07/07 11:15:18;;;;;;;7.5;3.7;;;;;;;28.86;36.98926;941.3542;;;;
2023/07/07 11:17:44;;;;;;;7.1;3.8;;;;;;;29.37;36.47168;941.3212;;;;
2023/07/07 11:20:09;;;;;;;5.8;3.6;;;;;;;29.34;42.62891;941.3161;;;;
2023/07/07 11:22:37;;;;;;;6.4;3.8;;;;;;;29.69;36.10352;941.2439;;;;
2023/07/07 11:25:02;;;;;;;7.1;4.1;;;;;;;29.44;42.125;941.2887;;;;
2023/07/07 11:27:29;;;;;;;5.9;3.8;;;;;;;29.46;39.75586;941.3325;;;;
2023/07/07 11:29:54;;;;;;;6.8;3.8;;;;;;;29.68;39.03613;941.2869;;;;
2023/07/07 11:32:19;;;;;;;6.4;3.8;;;;;;;29.9;40.9873;941.2919;;;;
2023/07/07 11:34:44;;;;;;;6.6;3.7;;;;;;;29.64;38.30566;941.1717;;;;
2023/07/07 11:37:09;;;;;;;7.3;4.2;;;;;;;29.11;38.62891;941.275;;;;
2023/07/07 11:39:35;;;;;;;8;4.2;;;;;;;28.63;43.52441;941.1981;;;;
2023/07/07 11:42:03;;;;;;;6.6;3.7;;;;;;;28.96;41.87793;941.2313;;;;
2023/07/07 11:44:25;;;;;;;5.4;3.4;;;;;;;28.56;43.0791;941.2133;;;;
2023/07/07 11:46:52;;;;;;;6.2;4.2;;;;;;;28.5;41.38379;941.1839;;;;
2023/07/07 11:49:17;;;;;;;7.4;3.6;;;;;;;28.94;38.43652;941.1525;;;;
2023/07/07 11:51:44;;;;;;;6.9;3.7;;;;;;;29.29;39.7998;941.1454;;;;
2023/07/07 11:54:09;;;;;;;6.1;3.4;;;;;;;29.21;41.04395;941.1486;;;;
2023/07/07 11:56:35;;;;;;;6.8;4.1;;;;;;;29.23;40.34375;941.1649;;;;
2023/07/07 11:59:00;;;;;;;5;3.5;;;;;;;29.16;39.99121;941.1254;;;;
2023/07/07 12:01:26;;;;;;;6.7;4;;;;;;;29.44;40.46875;941.097;;;;
2023/07/07 12:03:55;;;;;;;8.2;3.4;;;;;;;29.79;38.03223;941.1047;;;;
2023/07/07 12:06:20;;;;;;;6.1;3.4;;;;;;;29.68;38.79785;941.0176;;;;
2023/07/07 12:08:48;;;;;;;8;4;;;;;;;29.65;38.6875;941.0295;;;;
2023/07/07 12:11:14;;;;;;;5.5;3.5;;;;;;;29.72;38.76563;941.0193;;;;
2023/07/07 12:13:42;;;;;;;4.9;3.6;;;;;;;29.82;37.2832;941.0033;;;;
2023/07/07 12:16:11;;;;;;;7;4;;;;;;;29.97;37.2832;940.9874;;;;
2023/07/07 12:18:37;;;;;;;9.1;3.9;;;;;;;29.47;38.61328;940.9231;;;;
2023/07/07 12:21:07;;;;;;;5.8;4.1;;;;;;;29.21;39.8291;940.9928;;;;
2023/07/07 12:23:34;;;;;;;4.9;3.5;;;;;;;29.26;38.28516;940.9622;;;;
2023/07/07 12:25:59;;;;;;;7;3.7;;;;;;;29.6;41.87793;940.9772;;;;
2023/07/07 12:28:31;;;;;;;7.6;3.8;;;;;;;29.91;36.3125;940.9405;;;;
2023/07/07 12:30:59;;;;;;;5.3;4;;;;;;;29.53;38.12891;940.9163;;;;
2023/07/07 12:33:24;;;;;;;7.4;3.6;;;;;;;29.37;43.2627;940.9106;;;;
2023/07/07 12:35:58;;;;;;;5.6;4;;;;;;;29.63;37.75684;940.9163;;;;
2023/07/07 12:38:21;;;;;;;6.7;3.5;;;;;;;29.89;35.39258;940.8517;;;;
2023/07/07 12:40:49;;;;;;;6.2;3.5;;;;;;;30.07;34.72656;940.863;;;;
2023/07/07 12:43:13;;;;;;;7;3.4;;;;;;;29.71;39.21777;940.8683;;;;
2023/07/07 12:45:38;;;;;;;6.9;3.3;;;;;;;29.68;40.2041;940.8323;;;;
2023/07/07 12:48:08;;;;;;;6.1;3.5;;;;;;;29.77;36.24219;940.8035;;;;
2023/07/07 12:50:33;;;;;;;5.6;3.4;;;;;;;29.93;37.58984;940.8351;;;;
2023/07/07 12:52:59;;;;;;;5.5;3.4;;;;;;;29.64;40.74902;940.8411;;;;
2023/07/07 12:55:24;;;;;;;6.1;3.6;;;;;;;29.12;39.57129;940.8283;;;;
2023/07/07 12:57:49;;;;;;;7.5;3.5;;;;;;;28.8;42.92285;940.8445;;;;
2023/07/07 13:00:19;;;;;;;6.6;3.3;;;;;;;28.91;42.70801;940.8073;;;;
2023/07/07 13:02:44;;;;;;;6.3;3.6;;;;;;;28.8;37.38867;940.7338;;;;
2023/07/07 13:05:17;;;;;;;5.4;3.2;;;;;;;28.29;41.35254;940.8052;;;;
2023/07/07 13:07:42;;;;;;;5;3.5;;;;;;;28.1;41.14453;940.7958;;;;
2023/07/07 13:10:08;;;;;;;7;3.8;;;;;;;28.49;40.58594;940.7708;;;;
2023/07/07 13:12:33;;;;;;;7.7;3.8;;;;;;;28.71;39.7373;940.7151;;;;
2023/07/07 13:14:58;;;;;;;5.8;3.6;;;;;;;28.73;42.02246;940.7257;;;;
2023/07/07 13:17:31;;;;;;;8.3;4.2;;;;;;;28.22;38.7666;940.6533;;;;
2023/07/07 13:19:55;;;;;;;6.2;3.6;;;;;;;28.13;39.40137;940.6753;;;;
2023/07/07 13:22:23;;;;;;;5.1;3.4;;;;;;;28.15;39.45117;940.6674;;;;
2023/07/07 13:24:50;;;;;;;8.2;4.2;;;;;;;28.37;42.73828;940.7394;;;;
2023/07/07 13:27:16;;;;;;;6.8;3.5;;;;;;;28.68;40.12793;940.7283;;;;
2023/07/07 13:29:40;;;;;;;7.6;3.9;;;;;;;28.73;41.63184;940.7064;;;;
2023/07/07 13:32:05;;;;;;;6.5;3.7;;;;;;;28.74;40.65625;940.6956;;;;
2023/07/07 13:34:33;;;;;;;5.8;3.7;;;;;;;28.76;40.07422;940.6951;;;;
2023/07/07 13:36:56;;;;;;;5.3;3.7;;;;;;;28.55;42.64844;940.6503;;;;
2023/07/07 13:39:27;;;;;;;7.9;4;;;;;;;28.4;39.9707;940.6177;;;;
2023/07/07 13:41:52;;;;;;;5.5;3.4;;;;;;;28.56;40.55664;940.6294;;;;
2023/07/07 13:44:17;;;;;;;6.3;3.9;;;;;;;28.56;42.62598;940.5891;;;;
2023/07/07 13:46:44;;;;;;;6.9;4.2;;;;;;;28.75;39.37207;940.6097;;;;
2023/07/07 13:49:11;;;;;;;6.3;3.7;;;;;;;28.77;40.15918;940.6024;;;;
2023/07/07 13:51:36;;;;;;;5.9;3.9;;;;;;;28.82;39.10449;940.5935;;;;
2023/07/07 13:54:01;;;;;;;6.7;3.9;;;;;;;28.61;40.24121;940.5564;;;;
2023/07/07 13:56:27;;;;;;;7;4.1;;;;;;;28.48;40.98926;940.5938;;;;
2023/07/07 13:58:54;;;;;;;7;4.3;;;;;;;28.34;41.29785;940.5356;;;;
2023/07/07 14:01:21;;;;;;;6.7;4.1;;;;;;;28.33;41.68945;940.5002;;;;
2023/07/07 14:03:46;;;;;;;6.5;4.5;;;;;;;28.37;39.88574;940.4601;;;;
2023/07/07 14:06:11;;;;;;;6.9;3.8;;;;;;;28.32;42.1875;940.5095;;;;
2023/07/07 14:08:37;;;;;;;7.2;4.1;;;;;;;28.44;39.92773;940.5047;;;;
2023/07/07 14:11:05;;;;;;;8;3.8;;;;;;;28.35;40.91797;940.4899;;;;
2023/07/07 14:13:30;;;;;;;8.5;3.9;;;;;;;28.23;41.7627;940.5387;;;;
2023/07/07 14:16:03;;;;;;;6.2;3.9;;;;;;;28.29;39.81836;940.49;;;;
2023/07/07 14:18:28;;;;;;;7;3.6;;;;;;;28.26;43.15625;940.4802;;;;
2023/07/07 14:21:00;;;;;;;6.3;3.8;;;;;;;28.31;40.3916;940.4316;;;;
2023/07/07 14:23:25;;;;;;;8.2;4.1;;;;;;;28.3;42.76855;940.4672;;;;
2023/07/07 14:25:56;;;;;;;8.1;3.9;;;;;;;28.28;42.38574;940.368;;;;
2023/07/07 14:28:21;;;;;;;5.6;3.8;;;;;;;28.18;40.77246;940.348;;;;
2023/07/07 14:30:47;;;;;;;8;4.1;;;;;;;28.12;41.63379;940.3018;;;;
2023/07/07 14:33:12;;;;;;;7.6;3.9;;;;;;;28.13;41.99121;940.3331;;;;
2023/07/07 14:35:37;;;;;;;5.7;3.6;;;;;;;27.95;43.00781;940.2983;;;;
2023/07/07 14:38:02;;;;;;;8.7;4.2;;;;;;;28.13;40.06543;940.2898;;;;
2023/07/07 14:40:31;;;;;;;7.8;4.2;;;;;;;28.2;43.21094;940.2832;;;;